sensor_id;sensor_type;location;lat;lon;timestamp;pressure;altitude;pressure_sealevel;temperature;humidity
26823;BME280;14852;51.910;8.878;2023-05-21T00:00:46;99985.53;;;14.66;56.00
26823;BME280;14852;51.910;8.878;2023-05-21T00:03:13;99985.53;;;14.66;56.01
26823;BME280;14852;51.910;8.878;2023-05-21T00:05:41;99987.31;;;14.66;55.82
26823;BME280;14852;51.910;8.878;2023-05-21T00:08:07;99985.53;;;14.66;56.41
26823;BME280;14852;51.910;8.878;2023-05-21T00:10:33;99988.91;;;14.68;56.18
26823;BME280;14852;51.910;8.878;2023-05-21T00:12:59;99977.50;;;14.69;56.30
26823;BME280;14852;51.910;8.878;2023-05-21T00:15:25;99981.06;;;14.68;56.08
26823;BME280;14852;51.910;8.878;2023-05-21T00:17:50;99971.84;;;14.63;56.34
26823;BME280;14852;51.910;8.878;2023-05-21T00:20:17;99972.16;;;14.58;56.21
26823;BME280;14852;51.910;8.878;2023-05-21T00:22:42;99974.13;;;14.55;56.37
26823;BME280;14852;51.910;8.878;2023-05-21T00:25:10;99969.94;;;14.52;56.75
26823;BME280;14852;51.910;8.878;2023-05-21T00:27:36;99970.97;;;14.49;56.54
26823;BME280;14852;51.910;8.878;2023-05-21T00:30:03;99969.38;;;14.47;56.75
26823;BME280;14852;51.910;8.878;2023-05-21T00:32:29;99965.19;;;14.44;56.62
26823;BME280;14852;51.910;8.878;2023-05-21T00:34:55;99959.22;;;14.42;56.50
26823;BME280;14852;51.910;8.878;2023-05-21T00:37:22;99953.28;;;14.40;56.97
26823;BME280;14852;51.910;8.878;2023-05-21T00:39:49;99961.75;;;14.44;57.03
26823;BME280;14852;51.910;8.878;2023-05-21T00:42:16;99957.34;;;14.44;56.70
26823;BME280;14852;51.910;8.878;2023-05-21T00:44:45;99950.56;;;14.42;56.81
26823;BME280;14852;51.910;8.878;2023-05-21T00:47:12;99947.28;;;14.38;57.06
26823;BME280;14852;51.910;8.878;2023-05-21T00:49:38;99943.16;;;14.34;56.72
26823;BME280;14852;51.910;8.878;2023-05-21T00:52:05;99947.75;;;14.31;56.90
26823;BME280;14852;51.910;8.878;2023-05-21T00:54:31;99943.78;;;14.25;56.99
26823;BME280;14852;51.910;8.878;2023-05-21T00:56:58;99944.06;;;14.21;57.47
26823;BME280;14852;51.910;8.878;2023-05-21T00:59:24;99940.72;;;14.19;57.55
26823;BME280;14852;51.910;8.878;2023-05-21T01:01:51;99937.28;;;14.18;57.18
26823;BME280;14852;51.910;8.878;2023-05-21T01:04:23;99941.53;;;14.19;57.44
26823;BME280;14852;51.910;8.878;2023-05-21T01:06:49;99940.16;;;14.13;57.03
26823;BME280;14852;51.910;8.878;2023-05-21T01:09:18;99939.63;;;14.08;57.49
26823;BME280;14852;51.910;8.878;2023-05-21T01:11:47;99930.94;;;14.08;57.56
26823;BME280;14852;51.910;8.878;2023-05-21T01:14:15;99935.13;;;14.10;57.73
26823;BME280;14852;51.910;8.878;2023-05-21T01:16:45;99935.78;;;14.14;57.18
26823;BME280;14852;51.910;8.878;2023-05-21T01:19:18;99934.00;;;14.14;57.59
26823;BME280;14852;51.910;8.878;2023-05-21T01:21:49;99935.50;;;14.19;57.24
26823;BME280;14852;51.910;8.878;2023-05-21T01:24:15;99927.34;;;14.23;57.12
26823;BME280;14852;51.910;8.878;2023-05-21T01:26:41;99929.47;;;14.31;57.16
26823;BME280;14852;51.910;8.878;2023-05-21T01:29:09;99920.38;;;14.36;57.03
26823;BME280;14852;51.910;8.878;2023-05-21T01:32:41;99935.13;;;14.37;57.12
26823;BME280;14852;51.910;8.878;2023-05-21T01:35:13;99928.94;;;14.26;56.86
26823;BME280;14852;51.910;8.878;2023-05-21T01:40:52;99928.59;;;14.18;56.88
26823;BME280;14852;51.910;8.878;2023-05-21T01:43:21;99939.34;;;14.13;57.02
26823;BME280;14852;51.910;8.878;2023-05-21T01:45:53;99926.16;;;14.14;56.89
26823;BME280;14852;51.910;8.878;2023-05-21T01:48:19;99920.47;;;14.08;57.51
26823;BME280;14852;51.910;8.878;2023-05-21T01:50:47;99923.31;;;14.05;57.54
26823;BME280;14852;51.910;8.878;2023-05-21T01:53:14;99916.31;;;14.05;57.31
26823;BME280;14852;51.910;8.878;2023-05-21T01:55:41;99917.34;;;14.03;57.40
26823;BME280;14852;51.910;8.878;2023-05-21T01:58:08;99916.59;;;14.01;57.72
26823;BME280;14852;51.910;8.878;2023-05-21T02:00:34;99917.53;;;14.00;57.46
26823;BME280;14852;51.910;8.878;2023-05-21T02:03:02;99917.63;;;13.98;57.44
26823;BME280;14852;51.910;8.878;2023-05-21T02:05:27;99927.34;;;13.96;57.60
26823;BME280;14852;51.910;8.878;2023-05-21T02:07:54;99922.31;;;13.93;57.32
26823;BME280;14852;51.910;8.878;2023-05-21T02:10:21;99926.06;;;13.89;57.66
26823;BME280;14852;51.910;8.878;2023-05-21T02:12:47;99924.69;;;13.84;57.80
26823;BME280;14852;51.910;8.878;2023-05-21T02:15:13;99919.75;;;13.79;57.96
26823;BME280;14852;51.910;8.878;2023-05-21T02:17:39;99923.28;;;13.78;58.15
26823;BME280;14852;51.910;8.878;2023-05-21T02:20:09;99926.91;;;13.75;57.88
26823;BME280;14852;51.910;8.878;2023-05-21T02:22:44;99920.47;;;13.81;57.96
26823;BME280;14852;51.910;8.878;2023-05-21T02:25:12;99915.78;;;13.86;57.87
26823;BME280;14852;51.910;8.878;2023-05-21T02:27:39;99918.41;;;13.86;57.98
26823;BME280;14852;51.910;8.878;2023-05-21T02:30:09;99917.47;;;13.87;57.72
26823;BME280;14852;51.910;8.878;2023-05-21T02:32:36;99908.88;;;13.85;57.64
26823;BME280;14852;51.910;8.878;2023-05-21T02:35:03;99908.88;;;13.85;58.00
26823;BME280;14852;51.910;8.878;2023-05-21T02:37:30;99911.31;;;13.88;57.81
26823;BME280;14852;51.910;8.878;2023-05-21T02:40:01;99908.78;;;13.87;57.63
26823;BME280;14852;51.910;8.878;2023-05-21T02:42:27;99909.94;;;13.83;58.08
26823;BME280;14852;51.910;8.878;2023-05-21T02:44:53;99906.03;;;13.75;58.16
26823;BME280;14852;51.910;8.878;2023-05-21T02:47:20;99906.44;;;13.69;58.06
26823;BME280;14852;51.910;8.878;2023-05-21T02:49:49;99904.94;;;13.65;58.63
26823;BME280;14852;51.910;8.878;2023-05-21T02:52:16;99911.28;;;13.61;58.46
26823;BME280;14852;51.910;8.878;2023-05-21T02:54:44;99904.59;;;13.57;58.24
26823;BME280;14852;51.910;8.878;2023-05-21T02:57:10;99907.28;;;13.56;58.38
26823;BME280;14852;51.910;8.878;2023-05-21T02:59:35;99900.28;;;13.56;58.88
26823;BME280;14852;51.910;8.878;2023-05-21T03:02:01;99896.09;;;13.54;58.63
26823;BME280;14852;51.910;8.878;2023-05-21T03:04:27;99886.56;;;13.53;58.85
26823;BME280;14852;51.910;8.878;2023-05-21T03:06:54;99896.84;;;13.56;58.58
26823;BME280;14852;51.910;8.878;2023-05-21T03:09:21;99889.75;;;13.58;58.80
26823;BME280;14852;51.910;8.878;2023-05-21T03:11:50;99892.47;;;13.56;58.91
26823;BME280;14852;51.910;8.878;2023-05-21T03:14:16;99883.22;;;13.51;58.85
26823;BME280;14852;51.910;8.878;2023-05-21T03:16:42;99891.44;;;13.45;58.95
26823;BME280;14852;51.910;8.878;2023-05-21T03:19:12;99887.34;;;13.40;58.71
26823;BME280;14852;51.910;8.878;2023-05-21T03:21:38;99890.25;;;13.36;58.81
26823;BME280;14852;51.910;8.878;2023-05-21T03:24:05;99884.38;;;13.32;59.29
26823;BME280;14852;51.910;8.878;2023-05-21T03:26:31;99888.00;;;13.30;59.10
26823;BME280;14852;51.910;8.878;2023-05-21T03:28:57;99889.78;;;13.29;58.73
26823;BME280;14852;51.910;8.878;2023-05-21T03:31:24;99888.00;;;13.30;59.05
26823;BME280;14852;51.910;8.878;2023-05-21T03:34:04;99890.53;;;13.31;58.80
26823;BME280;14852;51.910;8.878;2023-05-21T03:36:31;99893.13;;;13.31;58.89
26823;BME280;14852;51.910;8.878;2023-05-21T03:38:57;99888.84;;;13.30;59.02
26823;BME280;14852;51.910;8.878;2023-05-21T03:41:23;99889.78;;;13.29;58.96
26823;BME280;14852;51.910;8.878;2023-05-21T03:43:54;99887.16;;;13.29;59.22
26823;BME280;14852;51.910;8.878;2023-05-21T03:46:22;99885.13;;;13.34;59.08
26823;BME280;14852;51.910;8.878;2023-05-21T03:49:14;99894.81;;;13.47;58.78
26823;BME280;14852;51.910;8.878;2023-05-21T03:51:41;99887.31;;;13.55;58.44
26823;BME280;14852;51.910;8.878;2023-05-21T03:54:10;99884.97;;;13.64;58.50
26823;BME280;14852;51.910;8.878;2023-05-21T03:56:37;99882.94;;;13.69;58.64
26823;BME280;14852;51.910;8.878;2023-05-21T03:59:03;99884.59;;;13.70;58.47
26823;BME280;14852;51.910;8.878;2023-05-21T04:01:29;99882.09;;;13.69;58.52
26823;BME280;14852;51.910;8.878;2023-05-21T04:03:56;99885.91;;;13.63;58.39
26823;BME280;14852;51.910;8.878;2023-05-21T04:06:23;99881.91;;;13.58;59.04
26823;BME280;14852;51.910;8.878;2023-05-21T04:08:49;99883.78;;;13.56;58.89
26823;BME280;14852;51.910;8.878;2023-05-21T04:11:15;99891.72;;;13.54;58.72
26823;BME280;14852;51.910;8.878;2023-05-21T04:13:41;99893.38;;;13.55;59.20
26823;BME280;14852;51.910;8.878;2023-05-21T04:16:07;99896.66;;;13.59;58.91
26823;BME280;14852;51.910;8.878;2023-05-21T04:18:34;99902.31;;;13.65;59.01
26823;BME280;14852;51.910;8.878;2023-05-21T04:21:00;99901.63;;;13.76;58.75
26823;BME280;14852;51.910;8.878;2023-05-21T04:23:27;99911.22;;;13.90;58.51
26823;BME280;14852;51.910;8.878;2023-05-21T04:25:54;99905.22;;;14.02;58.50
26823;BME280;14852;51.910;8.878;2023-05-21T04:28:21;99903.78;;;14.10;58.27
26823;BME280;14852;51.910;8.878;2023-05-21T04:30:48;99907.03;;;14.14;58.20
26823;BME280;14852;51.910;8.878;2023-05-21T04:33:14;99904.44;;;14.14;58.46
26823;BME280;14852;51.910;8.878;2023-05-21T04:35:50;99909.78;;;14.25;58.27
26823;BME280;14852;51.910;8.878;2023-05-21T04:38:17;99914.00;;;14.28;58.72
26823;BME280;14852;51.910;8.878;2023-05-21T04:40:50;99903.78;;;14.37;58.17
26823;BME280;14852;51.910;8.878;2023-05-21T04:43:16;99906.00;;;14.43;58.45
26823;BME280;14852;51.910;8.878;2023-05-21T04:45:43;99904.13;;;14.45;58.64
26823;BME280;14852;51.910;8.878;2023-05-21T04:48:10;99911.78;;;14.48;58.53
26823;BME280;14852;51.910;8.878;2023-05-21T04:50:37;99911.50;;;14.53;58.74
26823;BME280;14852;51.910;8.878;2023-05-21T04:53:03;99916.09;;;14.62;58.83
26823;BME280;14852;51.910;8.878;2023-05-21T04:55:29;99916.13;;;14.75;58.46
26823;BME280;14852;51.910;8.878;2023-05-21T04:57:54;99912.78;;;14.85;58.71
26823;BME280;14852;51.910;8.878;2023-05-21T05:00:20;99913.94;;;14.94;58.44
26823;BME280;14852;51.910;8.878;2023-05-21T05:02:48;99906.50;;;15.01;58.24
26823;BME280;14852;51.910;8.878;2023-05-21T05:05:13;99905.66;;;15.13;58.37
26823;BME280;14852;51.910;8.878;2023-05-21T05:07:39;99895.19;;;15.26;58.44
26823;BME280;14852;51.910;8.878;2023-05-21T05:10:06;99894.53;;;15.35;58.16
26823;BME280;14852;51.910;8.878;2023-05-21T05:12:32;99891.19;;;15.45;57.88
26823;BME280;14852;51.910;8.878;2023-05-21T05:14:58;99887.84;;;15.56;58.03
26823;BME280;14852;51.910;8.878;2023-05-21T05:17:23;99893.16;;;15.67;58.14
26823;BME280;14852;51.910;8.878;2023-05-21T05:19:50;99884.41;;;15.79;58.20
26823;BME280;14852;51.910;8.878;2023-05-21T05:22:15;99880.69;;;15.94;57.53
26823;BME280;14852;51.910;8.878;2023-05-21T05:24:41;99883.59;;;16.03;57.42
26823;BME280;14852;51.910;8.878;2023-05-21T05:27:07;99885.97;;;16.06;57.74
26823;BME280;14852;51.910;8.878;2023-05-21T05:29:33;99878.94;;;16.06;58.00
26823;BME280;14852;51.910;8.878;2023-05-21T05:31:59;99884.91;;;16.08;57.88
26823;BME280;14852;51.910;8.878;2023-05-21T05:34:24;99882.72;;;16.15;58.26
26823;BME280;14852;51.910;8.878;2023-05-21T05:36:50;99882.88;;;16.24;58.01
26823;BME280;14852;51.910;8.878;2023-05-21T05:39:16;99883.97;;;16.33;57.97
26823;BME280;14852;51.910;8.878;2023-05-21T05:41:42;99883.16;;;16.44;58.09
26823;BME280;14852;51.910;8.878;2023-05-21T05:44:08;99879.63;;;16.56;57.89
26823;BME280;14852;51.910;8.878;2023-05-21T05:46:36;99876.94;;;16.69;58.00
26823;BME280;14852;51.910;8.878;2023-05-21T05:49:02;99868.03;;;16.82;57.76
26823;BME280;14852;51.910;8.878;2023-05-21T05:51:28;99873.84;;;16.86;57.81
26823;BME280;14852;51.910;8.878;2023-05-21T05:53:54;99871.38;;;16.84;57.90
26823;BME280;14852;51.910;8.878;2023-05-21T05:56:20;99868.38;;;16.89;57.97
26823;BME280;14852;51.910;8.878;2023-05-21T05:58:46;99871.25;;;16.97;57.95
26823;BME280;14852;51.910;8.878;2023-05-21T06:01:15;99858.97;;;17.09;58.12
26823;BME280;14852;51.910;8.878;2023-05-21T06:03:42;99862.56;;;17.19;58.35
26823;BME280;14852;51.910;8.878;2023-05-21T06:06:14;99868.06;;;17.27;58.24
26823;BME280;14852;51.910;8.878;2023-05-21T06:08:39;99863.03;;;17.35;57.89
26823;BME280;14852;51.910;8.878;2023-05-21T06:11:05;99854.78;;;17.40;57.92
26823;BME280;14852;51.910;8.878;2023-05-21T06:13:31;99859.66;;;17.44;57.68
26823;BME280;14852;51.910;8.878;2023-05-21T06:15:57;99865.53;;;17.48;58.19
26823;BME280;14852;51.910;8.878;2023-05-21T06:18:23;99864.44;;;17.50;58.22
26823;BME280;14852;51.910;8.878;2023-05-21T06:20:48;99861.59;;;17.53;58.01
26823;BME280;14852;51.910;8.878;2023-05-21T06:23:15;99864.91;;;17.55;58.43
26823;BME280;14852;51.910;8.878;2023-05-21T06:25:43;99868.84;;;17.61;58.42
26823;BME280;14852;51.910;8.878;2023-05-21T06:28:10;99866.03;;;17.64;58.22
26823;BME280;14852;51.910;8.878;2023-05-21T06:30:37;99862.78;;;17.71;57.94
26823;BME280;14852;51.910;8.878;2023-05-21T06:33:03;99857.84;;;17.78;57.88
26823;BME280;14852;51.910;8.878;2023-05-21T06:35:29;99860.00;;;17.84;57.90
26823;BME280;14852;51.910;8.878;2023-05-21T06:37:55;99865.13;;;17.86;57.91
26823;BME280;14852;51.910;8.878;2023-05-21T06:40:21;99859.97;;;17.95;57.97
26823;BME280;14852;51.910;8.878;2023-05-21T06:42:48;99860.28;;;18.02;57.60
26823;BME280;14852;51.910;8.878;2023-05-21T06:45:32;99865.91;;;18.08;57.43
26823;BME280;14852;51.910;8.878;2023-05-21T06:48:04;99854.50;;;18.19;57.71
26823;BME280;14852;51.910;8.878;2023-05-21T06:50:30;99867.00;;;18.27;57.22
26823;BME280;14852;51.910;8.878;2023-05-21T06:52:56;99863.47;;;18.37;57.37
26823;BME280;14852;51.910;8.878;2023-05-21T06:55:22;99861.88;;;18.46;56.94
26823;BME280;14852;51.910;8.878;2023-05-21T06:58:12;99857.50;;;18.35;57.54
26823;BME280;14852;51.910;8.878;2023-05-21T07:00:38;99861.69;;;18.38;57.09
26823;BME280;14852;51.910;8.878;2023-05-21T07:03:04;99856.88;;;18.43;57.58
26823;BME280;14852;51.910;8.878;2023-05-21T07:05:30;99858.97;;;18.60;57.19
26823;BME280;14852;51.910;8.878;2023-05-21T07:07:56;99855.09;;;18.85;56.22
26823;BME280;14852;51.910;8.878;2023-05-21T07:10:21;99854.22;;;19.05;56.29
26823;BME280;14852;51.910;8.878;2023-05-21T07:12:47;99858.22;;;19.30;55.89
26823;BME280;14852;51.910;8.878;2023-05-21T07:15:13;99854.63;;;19.41;55.76
26823;BME280;14852;51.910;8.878;2023-05-21T07:17:39;99846.47;;;19.44;55.73
26823;BME280;14852;51.910;8.878;2023-05-21T07:20:06;99857.09;;;19.63;55.47
26823;BME280;14852;51.910;8.878;2023-05-21T07:22:32;99856.00;;;19.75;55.26
26823;BME280;14852;51.910;8.878;2023-05-21T07:24:58;99857.13;;;19.82;55.23
26823;BME280;14852;51.910;8.878;2023-05-21T07:27:24;99860.06;;;19.89;54.96
26823;BME280;14852;51.910;8.878;2023-05-21T07:29:50;99854.09;;;19.97;55.02
26823;BME280;14852;51.910;8.878;2023-05-21T07:32:16;99853.28;;;20.06;55.14
26823;BME280;14852;51.910;8.878;2023-05-21T07:34:41;99849.53;;;20.18;54.92
26823;BME280;14852;51.910;8.878;2023-05-21T07:37:07;99852.44;;;20.24;55.06
26823;BME280;14852;51.910;8.878;2023-05-21T07:39:33;99859.53;;;20.43;54.58
26823;BME280;14852;51.910;8.878;2023-05-21T07:41:59;99847.69;;;20.67;53.72
26823;BME280;14852;51.910;8.878;2023-05-21T07:44:24;99849.75;;;20.82;53.49
26823;BME280;14852;51.910;8.878;2023-05-21T07:46:50;99850.63;;;21.01;53.00
26823;BME280;14852;51.910;8.878;2023-05-21T07:49:16;99843.06;;;21.25;52.44
26823;BME280;14852;51.910;8.878;2023-05-21T07:51:43;99847.69;;;21.50;51.99
26823;BME280;14852;51.910;8.878;2023-05-21T07:54:10;99838.97;;;21.85;51.08
26823;BME280;14852;51.910;8.878;2023-05-21T07:56:36;99843.53;;;22.11;50.47
26823;BME280;14852;51.910;8.878;2023-05-21T07:59:03;99838.47;;;21.99;51.18
26823;BME280;14852;51.910;8.878;2023-05-21T08:01:29;99843.25;;;22.14;51.10
26823;BME280;14852;51.910;8.878;2023-05-21T08:03:55;99849.97;;;22.52;50.08
26823;BME280;14852;51.910;8.878;2023-05-21T08:06:21;99843.06;;;22.77;50.00
26823;BME280;14852;51.910;8.878;2023-05-21T08:08:49;99834.38;;;22.84;49.46
26823;BME280;14852;51.910;8.878;2023-05-21T08:11:15;99826.56;;;22.83;49.45
26823;BME280;14852;51.910;8.878;2023-05-21T08:13:42;99834.94;;;22.96;49.26
26823;BME280;14852;51.910;8.878;2023-05-21T08:16:10;99830.06;;;23.17;49.36
26823;BME280;14852;51.910;8.878;2023-05-21T08:18:36;99824.38;;;23.12;49.17
26823;BME280;14852;51.910;8.878;2023-05-21T08:21:02;99828.53;;;23.06;49.29
26823;BME280;14852;51.910;8.878;2023-05-21T08:23:29;99829.16;;;23.08;49.73
26823;BME280;14852;51.910;8.878;2023-05-21T08:25:57;99827.88;;;23.13;49.50
26823;BME280;14852;51.910;8.878;2023-05-21T08:28:23;99831.03;;;23.16;49.76
26823;BME280;14852;51.910;8.878;2023-05-21T08:30:51;99831.19;;;23.15;49.38
26823;BME280;14852;51.910;8.878;2023-05-21T08:33:16;99833.72;;;23.24;49.69
26823;BME280;14852;51.910;8.878;2023-05-21T08:35:43;99830.44;;;23.30;49.28
26823;BME280;14852;51.910;8.878;2023-05-21T08:38:35;99834.72;;;23.65;48.77
26823;BME280;14852;51.910;8.878;2023-05-21T08:41:11;99830.00;;;24.09;47.91
26823;BME280;14852;51.910;8.878;2023-05-21T08:43:38;99832.13;;;24.14;47.68
26823;BME280;14852;51.910;8.878;2023-05-21T08:46:05;99826.00;;;24.22;47.53
26823;BME280;14852;51.910;8.878;2023-05-21T08:48:36;99821.88;;;24.27;47.75
26823;BME280;14852;51.910;8.878;2023-05-21T08:51:03;99824.22;;;24.30;47.50
26823;BME280;14852;51.910;8.878;2023-05-21T08:53:33;99826.34;;;24.35;47.67
26823;BME280;14852;51.910;8.878;2023-05-21T08:56:00;99819.06;;;24.37;47.68
26823;BME280;14852;51.910;8.878;2023-05-21T08:58:40;99827.50;;;24.48;47.46
26823;BME280;14852;51.910;8.878;2023-05-21T09:01:09;99820.03;;;24.52;47.64
26823;BME280;14852;51.910;8.878;2023-05-21T09:03:39;99823.66;;;24.59;47.69
26823;BME280;14852;51.910;8.878;2023-05-21T09:06:10;99827.28;;;24.90;47.55
26823;BME280;14852;51.910;8.878;2023-05-21T09:08:43;99821.81;;;25.31;46.33
26823;BME280;14852;51.910;8.878;2023-05-21T09:11:28;99828.50;;;25.66;45.84
26823;BME280;14852;51.910;8.878;2023-05-21T09:13:57;99823.19;;;25.89;45.31
26823;BME280;14852;51.910;8.878;2023-05-21T09:16:45;99821.28;;;26.20;44.62
26823;BME280;14852;51.910;8.878;2023-05-21T09:19:13;99824.31;;;26.17;44.82
26823;BME280;14852;51.910;8.878;2023-05-21T09:21:39;99821.25;;;26.06;44.68
26823;BME280;14852;51.910;8.878;2023-05-21T09:24:12;99819.84;;;25.95;44.81
26823;BME280;14852;51.910;8.878;2023-05-21T09:26:42;99822.53;;;25.87;45.26
26823;BME280;14852;51.910;8.878;2023-05-21T09:29:08;99821.84;;;25.93;45.17
26823;BME280;14852;51.910;8.878;2023-05-21T09:31:34;99818.22;;;26.09;44.75
26823;BME280;14852;51.910;8.878;2023-05-21T09:34:01;99822.91;;;26.07;45.20
26823;BME280;14852;51.910;8.878;2023-05-21T09:36:27;99822.50;;;26.18;44.95
26823;BME280;14852;51.910;8.878;2023-05-21T09:38:54;99825.25;;;26.24;45.06
26823;BME280;14852;51.910;8.878;2023-05-21T09:41:19;99817.91;;;26.49;44.73
26823;BME280;14852;51.910;8.878;2023-05-21T09:43:59;99819.38;;;26.66;44.35
26823;BME280;14852;51.910;8.878;2023-05-21T09:46:25;99822.81;;;26.75;44.04
26823;BME280;14852;51.910;8.878;2023-05-21T09:48:51;99825.69;;;26.88;43.37
26823;BME280;14852;51.910;8.878;2023-05-21T09:51:19;99812.28;;;26.96;43.33
26823;BME280;14852;51.910;8.878;2023-05-21T09:53:54;99802.03;;;26.85;43.49
26823;BME280;14852;51.910;8.878;2023-05-21T09:56:28;99811.22;;;26.83;43.97
26823;BME280;14852;51.910;8.878;2023-05-21T09:59:01;99809.22;;;26.85;43.55
26823;BME280;14852;51.910;8.878;2023-05-21T10:01:31;99786.63;;;26.95;43.86
26823;BME280;14852;51.910;8.878;2023-05-21T10:04:01;99795.25;;;27.12;43.03
26823;BME280;14852;51.910;8.878;2023-05-21T10:06:29;99790.56;;;26.85;43.22
26823;BME280;14852;51.910;8.878;2023-05-21T10:08:58;99790.38;;;26.86;43.84
26823;BME280;14852;51.910;8.878;2023-05-21T10:11:26;99776.13;;;26.94;43.39
26823;BME280;14852;51.910;8.878;2023-05-21T10:14:06;99780.34;;;26.74;43.62
26823;BME280;14852;51.910;8.878;2023-05-21T10:16:34;99777.88;;;26.72;43.95
26823;BME280;14852;51.910;8.878;2023-05-21T10:19:01;99778.03;;;27.15;43.21
26823;BME280;14852;51.910;8.878;2023-05-21T10:21:27;99776.25;;;27.36;42.94
26823;BME280;14852;51.910;8.878;2023-05-21T10:23:54;99771.91;;;27.35;43.08
26823;BME280;14852;51.910;8.878;2023-05-21T10:26:22;99786.50;;;27.18;43.41
26823;BME280;14852;51.910;8.878;2023-05-21T10:28:50;99783.38;;;27.00;43.59
26823;BME280;14852;51.910;8.878;2023-05-21T10:31:17;99773.06;;;27.12;43.22
26823;BME280;14852;51.910;8.878;2023-05-21T10:33:43;99772.41;;;27.24;42.91
26823;BME280;14852;51.910;8.878;2023-05-21T10:36:08;99767.91;;;27.25;42.92
26823;BME280;14852;51.910;8.878;2023-05-21T10:38:36;99758.69;;;27.27;43.68
26823;BME280;14852;51.910;8.878;2023-05-21T10:41:03;99760.72;;;27.25;43.58
26823;BME280;14852;51.910;8.878;2023-05-21T10:47:09;99754.34;;;27.56;43.25
26823;BME280;14852;51.910;8.878;2023-05-21T10:50:25;99763.88;;;27.50;43.30
26823;BME280;14852;51.910;8.878;2023-05-21T10:55:58;99752.94;;;27.60;43.29
26823;BME280;14852;51.910;8.878;2023-05-21T10:59:07;99760.38;;;27.64;43.35
26823;BME280;14852;51.910;8.878;2023-05-21T11:01:37;99751.66;;;27.77;42.68
26823;BME280;14852;51.910;8.878;2023-05-21T11:04:04;99757.06;;;27.84;42.72
26823;BME280;14852;51.910;8.878;2023-05-21T11:06:30;99755.16;;;27.99;42.17
26823;BME280;14852;51.910;8.878;2023-05-21T11:09:01;99748.47;;;28.09;42.27
26823;BME280;14852;51.910;8.878;2023-05-21T11:11:55;99747.00;;;28.07;42.58
26823;BME280;14852;51.910;8.878;2023-05-21T11:14:38;99748.13;;;27.91;42.03
26823;BME280;14852;51.910;8.878;2023-05-21T11:17:11;99750.78;;;27.91;42.54
26823;BME280;14852;51.910;8.878;2023-05-21T11:19:43;99751.16;;;27.67;42.83
26823;BME280;14852;51.910;8.878;2023-05-21T11:22:27;99759.75;;;27.48;42.84
26823;BME280;14852;51.910;8.878;2023-05-21T11:24:55;99755.19;;;27.42;42.92
26823;BME280;14852;51.910;8.878;2023-05-21T11:27:34;99758.41;;;27.37;42.72
26823;BME280;14852;51.910;8.878;2023-05-21T11:30:15;99756.31;;;27.32;42.92
26823;BME280;14852;51.910;8.878;2023-05-21T11:38:10;99752.38;;;27.14;42.82
26823;BME280;14852;51.910;8.878;2023-05-21T11:40:36;99747.63;;;27.09;42.63
26823;BME280;14852;51.910;8.878;2023-05-21T11:43:02;99746.63;;;27.10;43.06
26823;BME280;14852;51.910;8.878;2023-05-21T11:45:31;99751.31;;;26.93;42.94
26823;BME280;14852;51.910;8.878;2023-05-21T11:47:57;99741.38;;;26.87;43.18
26823;BME280;14852;51.910;8.878;2023-05-21T11:50:24;99742.94;;;26.82;43.18
26823;BME280;14852;51.910;8.878;2023-05-21T11:52:51;99740.25;;;26.82;42.70
26823;BME280;14852;51.910;8.878;2023-05-21T11:55:23;99754.50;;;26.89;43.23
26823;BME280;14852;51.910;8.878;2023-05-21T11:57:52;99744.13;;;27.09;43.05
26823;BME280;14852;51.910;8.878;2023-05-21T12:00:18;99737.72;;;27.24;42.47
26823;BME280;14852;51.910;8.878;2023-05-21T12:02:49;99741.13;;;27.33;43.30
26823;BME280;14852;51.910;8.878;2023-05-21T12:05:15;99742.16;;;27.53;42.65
26823;BME280;14852;51.910;8.878;2023-05-21T12:07:41;99735.81;;;27.54;42.05
26823;BME280;14852;51.910;8.878;2023-05-21T12:10:08;99724.66;;;27.29;42.44
26823;BME280;14852;51.910;8.878;2023-05-21T12:12:34;99728.34;;;27.28;42.58
26823;BME280;14852;51.910;8.878;2023-05-21T12:15:01;99718.97;;;27.32;42.92
26823;BME280;14852;51.910;8.878;2023-05-21T12:17:27;99720.72;;;27.47;42.65
26823;BME280;14852;51.910;8.878;2023-05-21T12:19:54;99720.25;;;27.58;42.53
26823;BME280;14852;51.910;8.878;2023-05-21T12:22:22;99718.03;;;27.61;42.92
26823;BME280;14852;51.910;8.878;2023-05-21T12:24:49;99724.19;;;27.62;42.90
26823;BME280;14852;51.910;8.878;2023-05-21T12:27:15;99717.09;;;27.69;43.03
26823;BME280;14852;51.910;8.878;2023-05-21T12:29:44;99721.94;;;27.80;43.23
26823;BME280;14852;51.910;8.878;2023-05-21T12:32:13;99725.63;;;27.79;43.02
26823;BME280;14852;51.910;8.878;2023-05-21T12:34:50;99723.38;;;27.83;42.87
26823;BME280;14852;51.910;8.878;2023-05-21T12:37:23;99721.63;;;27.68;43.10
26823;BME280;14852;51.910;8.878;2023-05-21T12:39:52;99716.38;;;27.60;42.72
26823;BME280;14852;51.910;8.878;2023-05-21T12:42:44;99719.78;;;27.54;43.60
26823;BME280;14852;51.910;8.878;2023-05-21T12:45:10;99718.28;;;27.45;43.33
26823;BME280;14852;51.910;8.878;2023-05-21T12:47:36;99722.28;;;27.34;43.49
26823;BME280;14852;51.910;8.878;2023-05-21T12:50:07;99731.19;;;27.27;43.93
26823;BME280;14852;51.910;8.878;2023-05-21T12:52:32;99720.78;;;27.11;43.68
26823;BME280;14852;51.910;8.878;2023-05-21T12:54:58;99729.31;;;27.06;43.53
26823;BME280;14852;51.910;8.878;2023-05-21T12:57:27;99724.00;;;27.06;43.78
26823;BME280;14852;51.910;8.878;2023-05-21T13:00:00;99723.47;;;26.96;44.06
26823;BME280;14852;51.910;8.878;2023-05-21T13:02:37;99725.19;;;27.03;43.92
26823;BME280;14852;51.910;8.878;2023-05-21T13:05:06;99727.38;;;27.00;43.98
26823;BME280;14852;51.910;8.878;2023-05-21T13:07:34;99723.97;;;26.91;43.92
26823;BME280;14852;51.910;8.878;2023-05-21T13:10:01;99723.31;;;26.89;44.36
26823;BME280;14852;51.910;8.878;2023-05-21T13:12:31;99727.13;;;26.80;44.39
26823;BME280;14852;51.910;8.878;2023-05-21T13:14:59;99720.94;;;26.80;44.68
26823;BME280;14852;51.910;8.878;2023-05-21T13:17:26;99716.53;;;26.87;44.44
26823;BME280;14852;51.910;8.878;2023-05-21T13:22:41;99717.19;;;27.03;44.23
26823;BME280;14852;51.910;8.878;2023-05-21T13:25:12;99711.78;;;26.97;44.44